Lakeport, Michigan
Current Conditions -  °F | °C
As of 8:36 AM on Tuesday 21 Oct 2014 (Local Time) from KPHN Reporting Station
Overcast Overcast  
Wind Chill: 42°   Ceiling: 2100
Heat Index: 46°   Visibility: 10mi
Dew Point: 43°   Wind: 9mph
Humidity: 87%   Direction: 340°NNW
Pressure: 29.96"   Gusts: NA
Location:  43.0393°N, 82.4847°W
Report Text: KPHN 211236Z AUTO 34008KT 10SM BKN021 OVC026 08/06 A2996 RMK AO2
Loading
Personal Weather Stations






























Interactive Weather Map
Tropical Storm Tracking
New forecast layout! Learn more

10-Day Weather Forecast

Advertisements
Track Severe Weather on mobile